sensor_id;sensor_type;location;lat;lon;timestamp;pressure;altitude;pressure_sealevel;temperature;humidity
23253;BME280;11795;47.054;15.408;2024-01-11T00:01:59;98500;;;-3.5;75.7
23253;BME280;11795;47.054;15.408;2024-01-11T00:03:59;98500;;;-3.5;75.4
23253;BME280;11795;47.054;15.408;2024-01-11T00:06:01;98490;;;-3.4;75.0
23253;BME280;11795;47.054;15.408;2024-01-11T00:07:59;98500;;;-3.6;75.7
23253;BME280;11795;47.054;15.408;2024-01-11T00:10:00;98500;;;-3.7;76.0
23253;BME280;11795;47.054;15.408;2024-01-11T00:11:59;98500;;;-3.6;75.7
23253;BME280;11795;47.054;15.408;2024-01-11T00:13:59;98500;;;-3.7;75.9
23253;BME280;11795;47.054;15.408;2024-01-11T00:15:59;98500;;;-3.6;75.6
23253;BME280;11795;47.054;15.408;2024-01-11T00:17:59;98500;;;-3.8;75.9
23253;BME280;11795;47.054;15.408;2024-01-11T00:20:00;98500;;;-3.8;76.4
23253;BME280;11795;47.054;15.408;2024-01-11T00:21:59;98500;;;-3.8;76.2
23253;BME280;11795;47.054;15.408;2024-01-11T00:23:59;98490;;;-3.8;76.5
23253;BME280;11795;47.054;15.408;2024-01-11T00:25:59;98490;;;-3.6;75.9
23253;BME280;11795;47.054;15.408;2024-01-11T00:27:59;98500;;;-3.6;75.7
23253;BME280;11795;47.054;15.408;2024-01-11T00:29:59;98490;;;-3.7;75.9
23253;BME280;11795;47.054;15.408;2024-01-11T00:31:59;98490;;;-3.6;75.5
23253;BME280;11795;47.054;15.408;2024-01-11T00:33:59;98490;;;-3.8;75.8
23253;BME280;11795;47.054;15.408;2024-01-11T00:35:59;98490;;;-3.7;76.0
23253;BME280;11795;47.054;15.408;2024-01-11T00:37:59;98490;;;-3.8;76.2
23253;BME280;11795;47.054;15.408;2024-01-11T00:39:59;98490;;;-3.9;76.5
23253;BME280;11795;47.054;15.408;2024-01-11T00:41:59;98490;;;-3.8;76.2
23253;BME280;11795;47.054;15.408;2024-01-11T00:43:59;98480;;;-3.8;76.5
23253;BME280;11795;47.054;15.408;2024-01-11T00:45:59;98480;;;-3.7;76.3
23253;BME280;11795;47.054;15.408;2024-01-11T00:47:59;98490;;;-3.8;76.7
23253;BME280;11795;47.054;15.408;2024-01-11T00:49:59;98490;;;-3.9;77.1
23253;BME280;11795;47.054;15.408;2024-01-11T00:51:59;98490;;;-3.8;77.1
23253;BME280;11795;47.054;15.408;2024-01-11T00:53:59;98490;;;-3.9;77.2
23253;BME280;11795;47.054;15.408;2024-01-11T00:55:59;98490;;;-3.7;76.7
23253;BME280;11795;47.054;15.408;2024-01-11T00:57:59;98490;;;-3.9;77.1
23253;BME280;11795;47.054;15.408;2024-01-11T00:59:59;98500;;;-4.0;77.4
23253;BME280;11795;47.054;15.408;2024-01-11T01:01:59;98500;;;-3.9;77.2
23253;BME280;11795;47.054;15.408;2024-01-11T01:03:59;98500;;;-4.0;77.4
23253;BME280;11795;47.054;15.408;2024-01-11T01:05:59;98500;;;-3.9;77.4
23253;BME280;11795;47.054;15.408;2024-01-11T01:07:59;98500;;;-3.9;77.4
23253;BME280;11795;47.054;15.408;2024-01-11T01:09:59;98500;;;-4.0;77.3
23253;BME280;11795;47.054;15.408;2024-01-11T01:11:59;98500;;;-4.1;77.0
23253;BME280;11795;47.054;15.408;2024-01-11T01:13:59;98500;;;-4.1;77.3
23253;BME280;11795;47.054;15.408;2024-01-11T01:15:59;98500;;;-4.1;77.2
23253;BME280;11795;47.054;15.408;2024-01-11T01:17:59;98500;;;-4.1;77.3
23253;BME280;11795;47.054;15.408;2024-01-11T01:20:01;98500;;;-4.2;77.4
23253;BME280;11795;47.054;15.408;2024-01-11T01:21:59;98500;;;-4.2;77.2
23253;BME280;11795;47.054;15.408;2024-01-11T01:23:59;98490;;;-4.2;77.7
23253;BME280;11795;47.054;15.408;2024-01-11T01:25:59;98500;;;-4.1;77.6
23253;BME280;11795;47.054;15.408;2024-01-11T01:28:01;98490;;;-4.2;77.8
23253;BME280;11795;47.054;15.408;2024-01-11T01:29:59;98490;;;-4.2;78.1
23253;BME280;11795;47.054;15.408;2024-01-11T01:31:59;98500;;;-4.2;78.1
23253;BME280;11795;47.054;15.408;2024-01-11T01:33:59;98500;;;-4.2;78.2
23253;BME280;11795;47.054;15.408;2024-01-11T01:35:59;98500;;;-4.1;78.0
23253;BME280;11795;47.054;15.408;2024-01-11T01:37:59;98500;;;-4.1;78.0
23253;BME280;11795;47.054;15.408;2024-01-11T01:39:59;98500;;;-4.0;77.8
23253;BME280;11795;47.054;15.408;2024-01-11T01:41:59;98490;;;-3.9;77.1
23253;BME280;11795;47.054;15.408;2024-01-11T01:43:59;98480;;;-4.0;77.3
23253;BME280;11795;47.054;15.408;2024-01-11T01:46:00;98490;;;-4.0;77.3
23253;BME280;11795;47.054;15.408;2024-01-11T01:47:59;98490;;;-4.1;77.7
23253;BME280;11795;47.054;15.408;2024-01-11T01:49:59;98490;;;-4.2;78.0
23253;BME280;11795;47.054;15.408;2024-01-11T01:51:59;98490;;;-4.2;77.9
23253;BME280;11795;47.054;15.408;2024-01-11T01:54:00;98490;;;-4.3;78.0
23253;BME280;11795;47.054;15.408;2024-01-11T01:55:59;98480;;;-4.1;77.7
23253;BME280;11795;47.054;15.408;2024-01-11T01:58:00;98480;;;-4.2;77.3
23253;BME280;11795;47.054;15.408;2024-01-11T02:00:00;98480;;;-4.4;77.7
23253;BME280;11795;47.054;15.408;2024-01-11T02:01:59;98480;;;-4.3;77.6
23253;BME280;11795;47.054;15.408;2024-01-11T02:03:59;98470;;;-4.4;77.8
23253;BME280;11795;47.054;15.408;2024-01-11T02:05:59;98470;;;-4.2;77.7
23253;BME280;11795;47.054;15.408;2024-01-11T02:08:01;98470;;;-4.3;77.7
23253;BME280;11795;47.054;15.408;2024-01-11T02:09:59;98470;;;-4.3;78.1
23253;BME280;11795;47.054;15.408;2024-01-11T02:12:00;98460;;;-4.3;78.1
23253;BME280;11795;47.054;15.408;2024-01-11T02:13:59;98460;;;-4.4;78.4
23253;BME280;11795;47.054;15.408;2024-01-11T02:15:59;98450;;;-4.4;78.4
23253;BME280;11795;47.054;15.408;2024-01-11T02:17:59;98450;;;-4.4;78.6
23253;BME280;11795;47.054;15.408;2024-01-11T02:20:00;98450;;;-4.4;78.9
23253;BME280;11795;47.054;15.408;2024-01-11T02:22:01;98450;;;-4.2;78.9
23253;BME280;11795;47.054;15.408;2024-01-11T02:24:07;98450;;;-4.3;79.1
23253;BME280;11795;47.054;15.408;2024-01-11T02:25:59;98450;;;-4.3;79.3
23253;BME280;11795;47.054;15.408;2024-01-11T02:27:59;98450;;;-4.4;79.6
23253;BME280;11795;47.054;15.408;2024-01-11T02:29:59;98460;;;-4.4;79.8
23253;BME280;11795;47.054;15.408;2024-01-11T02:32:01;98450;;;-4.3;79.6
23253;BME280;11795;47.054;15.408;2024-01-11T02:33:59;98450;;;-4.4;80.0
23253;BME280;11795;47.054;15.408;2024-01-11T02:35:59;98460;;;-4.3;80.0
23253;BME280;11795;47.054;15.408;2024-01-11T02:37:59;98460;;;-4.4;80.2
23253;BME280;11795;47.054;15.408;2024-01-11T02:39:59;98460;;;-4.4;80.4
23253;BME280;11795;47.054;15.408;2024-01-11T02:41:59;98450;;;-4.4;80.3
23253;BME280;11795;47.054;15.408;2024-01-11T02:44:00;98450;;;-4.4;80.3
23253;BME280;11795;47.054;15.408;2024-01-11T02:45:59;98450;;;-4.3;79.7
23253;BME280;11795;47.054;15.408;2024-01-11T02:47:59;98450;;;-4.4;79.3
23253;BME280;11795;47.054;15.408;2024-01-11T02:49:59;98450;;;-4.4;78.7
23253;BME280;11795;47.054;15.408;2024-01-11T02:51:59;98450;;;-4.4;78.2
23253;BME280;11795;47.054;15.408;2024-01-11T02:53:59;98450;;;-4.6;78.6
23253;BME280;11795;47.054;15.408;2024-01-11T02:55:59;98450;;;-4.7;78.8
23253;BME280;11795;47.054;15.408;2024-01-11T02:57:59;98450;;;-4.8;79.2
23253;BME280;11795;47.054;15.408;2024-01-11T02:59:59;98440;;;-4.8;79.6
23253;BME280;11795;47.054;15.408;2024-01-11T03:01:59;98440;;;-4.7;79.6
23253;BME280;11795;47.054;15.408;2024-01-11T03:03:59;98450;;;-4.8;79.8
23253;BME280;11795;47.054;15.408;2024-01-11T03:05:59;98440;;;-4.7;79.7
23253;BME280;11795;47.054;15.408;2024-01-11T03:07:59;98450;;;-4.7;79.7
23253;BME280;11795;47.054;15.408;2024-01-11T03:09:59;98450;;;-4.7;80.1
23253;BME280;11795;47.054;15.408;2024-01-11T03:11:59;98440;;;-4.7;79.7
23253;BME280;11795;47.054;15.408;2024-01-11T03:13:59;98440;;;-4.7;79.9
23253;BME280;11795;47.054;15.408;2024-01-11T03:15:59;98440;;;-4.5;79.8
23253;BME280;11795;47.054;15.408;2024-01-11T03:17:59;98440;;;-4.7;80.3
23253;BME280;11795;47.054;15.408;2024-01-11T03:19:59;98440;;;-4.7;80.6
23253;BME280;11795;47.054;15.408;2024-01-11T03:22:03;98440;;;-4.6;80.5
23253;BME280;11795;47.054;15.408;2024-01-11T03:24:00;98440;;;-4.7;80.9
23253;BME280;11795;47.054;15.408;2024-01-11T03:25:59;98430;;;-4.6;80.8
23253;BME280;11795;47.054;15.408;2024-01-11T03:27:59;98430;;;-4.6;81.1
23253;BME280;11795;47.054;15.408;2024-01-11T03:29:59;98440;;;-4.7;81.3
23253;BME280;11795;47.054;15.408;2024-01-11T03:31:59;98430;;;-4.7;81.3
23253;BME280;11795;47.054;15.408;2024-01-11T03:33:59;98430;;;-4.8;81.7
23253;BME280;11795;47.054;15.408;2024-01-11T03:35:59;98420;;;-4.7;81.8
23253;BME280;11795;47.054;15.408;2024-01-11T03:37:59;98420;;;-4.6;81.6
23253;BME280;11795;47.054;15.408;2024-01-11T03:40:00;98420;;;-4.6;81.3
23253;BME280;11795;47.054;15.408;2024-01-11T03:41:59;98410;;;-4.7;81.6
23253;BME280;11795;47.054;15.408;2024-01-11T03:43:59;98410;;;-4.7;81.6
23253;BME280;11795;47.054;15.408;2024-01-11T03:45:59;98410;;;-4.6;81.4
23253;BME280;11795;47.054;15.408;2024-01-11T03:47:59;98400;;;-4.7;81.6
23253;BME280;11795;47.054;15.408;2024-01-11T03:49:59;98400;;;-4.8;82.0
23253;BME280;11795;47.054;15.408;2024-01-11T03:51:59;98400;;;-4.8;82.2
23253;BME280;11795;47.054;15.408;2024-01-11T03:53:59;98400;;;-4.9;82.6
23253;BME280;11795;47.054;15.408;2024-01-11T03:56:00;98400;;;-4.8;82.7
23253;BME280;11795;47.054;15.408;2024-01-11T03:57:59;98400;;;-5.0;82.9
23253;BME280;11795;47.054;15.408;2024-01-11T03:59:59;98400;;;-5.0;83.3
23253;BME280;11795;47.054;15.408;2024-01-11T04:01:59;98400;;;-4.9;83.3
23253;BME280;11795;47.054;15.408;2024-01-11T04:03:59;98400;;;-5.0;83.6
23253;BME280;11795;47.054;15.408;2024-01-11T04:05:59;98400;;;-4.9;83.7
23253;BME280;11795;47.054;15.408;2024-01-11T04:07:59;98400;;;-5.0;84.0
23253;BME280;11795;47.054;15.408;2024-01-11T04:10:00;98400;;;-5.0;84.2
23253;BME280;11795;47.054;15.408;2024-01-11T04:11:59;98410;;;-5.0;84.1
23253;BME280;11795;47.054;15.408;2024-01-11T04:13:59;98400;;;-5.0;84.3
23253;BME280;11795;47.054;15.408;2024-01-11T04:16:03;98400;;;-4.8;83.9
23253;BME280;11795;47.054;15.408;2024-01-11T04:17:59;98390;;;-4.9;83.5
23253;BME280;11795;47.054;15.408;2024-01-11T04:19:59;98390;;;-4.9;83.5
23253;BME280;11795;47.054;15.408;2024-01-11T04:21:59;98390;;;-4.9;83.0
23253;BME280;11795;47.054;15.408;2024-01-11T04:23:59;98380;;;-5.0;83.0
23253;BME280;11795;47.054;15.408;2024-01-11T04:25:59;98380;;;-4.9;82.8
23253;BME280;11795;47.054;15.408;2024-01-11T04:27:59;98380;;;-5.0;82.6
23253;BME280;11795;47.054;15.408;2024-01-11T04:29:59;98380;;;-5.1;82.7
23253;BME280;11795;47.054;15.408;2024-01-11T04:31:59;98380;;;-5.1;82.6
23253;BME280;11795;47.054;15.408;2024-01-11T04:33:59;98370;;;-5.1;82.8
23253;BME280;11795;47.054;15.408;2024-01-11T04:35:59;98380;;;-5.1;82.6
23253;BME280;11795;47.054;15.408;2024-01-11T04:37:59;98380;;;-5.2;82.5
23253;BME280;11795;47.054;15.408;2024-01-11T04:40:00;98380;;;-5.2;82.7
23253;BME280;11795;47.054;15.408;2024-01-11T04:42:00;98370;;;-5.2;82.5
23253;BME280;11795;47.054;15.408;2024-01-11T04:43:59;98360;;;-5.2;82.8
23253;BME280;11795;47.054;15.408;2024-01-11T04:45:59;98360;;;-5.1;83.0
23253;BME280;11795;47.054;15.408;2024-01-11T04:47:59;98360;;;-5.2;83.1
23253;BME280;11795;47.054;15.408;2024-01-11T04:49:59;98360;;;-5.2;83.1
23253;BME280;11795;47.054;15.408;2024-01-11T04:51:59;98360;;;-5.1;82.8
23253;BME280;11795;47.054;15.408;2024-01-11T04:53:59;98370;;;-5.2;82.9
23253;BME280;11795;47.054;15.408;2024-01-11T04:55:59;98370;;;-5.1;82.9
23253;BME280;11795;47.054;15.408;2024-01-11T04:57:59;98360;;;-5.2;83.2
23253;BME280;11795;47.054;15.408;2024-01-11T04:59:59;98370;;;-5.2;83.4
23253;BME280;11795;47.054;15.408;2024-01-11T05:01:59;98370;;;-5.1;83.4
23253;BME280;11795;47.054;15.408;2024-01-11T05:03:59;98370;;;-5.2;83.5
23253;BME280;11795;47.054;15.408;2024-01-11T05:05:59;98360;;;-5.1;83.5
23253;BME280;11795;47.054;15.408;2024-01-11T05:07:59;98360;;;-5.2;83.5
23253;BME280;11795;47.054;15.408;2024-01-11T05:09:59;98360;;;-5.2;83.7
23253;BME280;11795;47.054;15.408;2024-01-11T05:11:59;98360;;;-5.1;83.5
23253;BME280;11795;47.054;15.408;2024-01-11T05:13:59;98360;;;-5.1;83.4
23253;BME280;11795;47.054;15.408;2024-01-11T05:15:59;98360;;;-5.1;83.5
23253;BME280;11795;47.054;15.408;2024-01-11T05:17:59;98370;;;-5.2;83.6
23253;BME280;11795;47.054;15.408;2024-01-11T05:19:59;98370;;;-5.2;83.5
23253;BME280;11795;47.054;15.408;2024-01-11T05:21:59;98360;;;-5.2;83.2
23253;BME280;11795;47.054;15.408;2024-01-11T05:23:59;98360;;;-5.3;83.2
23253;BME280;11795;47.054;15.408;2024-01-11T05:25:59;98360;;;-5.2;83.2
23253;BME280;11795;47.054;15.408;2024-01-11T05:27:59;98360;;;-5.2;83.1
23253;BME280;11795;47.054;15.408;2024-01-11T05:29:59;98360;;;-5.2;83.1
23253;BME280;11795;47.054;15.408;2024-01-11T05:31:59;98350;;;-5.1;82.6
23253;BME280;11795;47.054;15.408;2024-01-11T05:33:59;98350;;;-5.2;82.3
23253;BME280;11795;47.054;15.408;2024-01-11T05:35:59;98340;;;-5.0;81.6
23253;BME280;11795;47.054;15.408;2024-01-11T05:37:59;98350;;;-5.1;81.1
23253;BME280;11795;47.054;15.408;2024-01-11T05:39:59;98350;;;-5.2;81.3
23253;BME280;11795;47.054;15.408;2024-01-11T05:41:59;98340;;;-5.2;81.1
23253;BME280;11795;47.054;15.408;2024-01-11T05:43:59;98340;;;-5.3;81.3
23253;BME280;11795;47.054;15.408;2024-01-11T05:45:59;98350;;;-5.3;81.3
23253;BME280;11795;47.054;15.408;2024-01-11T05:47:59;98350;;;-5.4;81.5
23253;BME280;11795;47.054;15.408;2024-01-11T05:49:59;98350;;;-5.4;81.8
23253;BME280;11795;47.054;15.408;2024-01-11T05:51:59;98350;;;-5.4;81.8
23253;BME280;11795;47.054;15.408;2024-01-11T05:53:59;98340;;;-5.4;82.1
23253;BME280;11795;47.054;15.408;2024-01-11T05:55:59;98350;;;-5.4;82.4
23253;BME280;11795;47.054;15.408;2024-01-11T05:57:59;98350;;;-5.4;82.9
23253;BME280;11795;47.054;15.408;2024-01-11T05:59:59;98350;;;-5.4;83.2
23253;BME280;11795;47.054;15.408;2024-01-11T06:02:00;98360;;;-5.4;83.0
23253;BME280;11795;47.054;15.408;2024-01-11T06:03:59;98360;;;-5.4;83.0
23253;BME280;11795;47.054;15.408;2024-01-11T06:06:00;98360;;;-5.3;82.9
23253;BME280;11795;47.054;15.408;2024-01-11T06:07:59;98360;;;-5.4;83.0
23253;BME280;11795;47.054;15.408;2024-01-11T06:10:01;98360;;;-5.4;83.0
23253;BME280;11795;47.054;15.408;2024-01-11T06:11:59;98360;;;-5.3;82.4
23253;BME280;11795;47.054;15.408;2024-01-11T06:14:00;98360;;;-5.3;82.2
23253;BME280;11795;47.054;15.408;2024-01-11T06:15:59;98360;;;-5.3;81.9
23253;BME280;11795;47.054;15.408;2024-01-11T06:17:59;98360;;;-5.4;82.1
23253;BME280;11795;47.054;15.408;2024-01-11T06:19:59;98360;;;-5.3;82.1
23253;BME280;11795;47.054;15.408;2024-01-11T06:21:59;98360;;;-5.4;82.0
23253;BME280;11795;47.054;15.408;2024-01-11T06:23:59;98360;;;-5.5;82.2
23253;BME280;11795;47.054;15.408;2024-01-11T06:25:59;98360;;;-5.3;82.1
23253;BME280;11795;47.054;15.408;2024-01-11T06:28:00;98360;;;-5.5;82.1
23253;BME280;11795;47.054;15.408;2024-01-11T06:29:59;98360;;;-5.5;82.3
23253;BME280;11795;47.054;15.408;2024-01-11T06:31:59;98350;;;-5.4;82.1
23253;BME280;11795;47.054;15.408;2024-01-11T06:33:59;98340;;;-5.4;82.0
23253;BME280;11795;47.054;15.408;2024-01-11T06:35:59;98340;;;-5.3;81.8
23253;BME280;11795;47.054;15.408;2024-01-11T06:37:59;98340;;;-5.5;81.6
23253;BME280;11795;47.054;15.408;2024-01-11T06:39:59;98340;;;-5.6;82.1
23253;BME280;11795;47.054;15.408;2024-01-11T06:41:59;98340;;;-5.4;81.9
23253;BME280;11795;47.054;15.408;2024-01-11T06:43:59;98340;;;-5.5;82.0
23253;BME280;11795;47.054;15.408;2024-01-11T06:46:02;98340;;;-5.5;82.4
23253;BME280;11795;47.054;15.408;2024-01-11T06:47:59;98340;;;-5.6;82.6
23253;BME280;11795;47.054;15.408;2024-01-11T06:50:00;98340;;;-5.5;82.8
23253;BME280;11795;47.054;15.408;2024-01-11T06:51:59;98340;;;-5.4;83.1
23253;BME280;11795;47.054;15.408;2024-01-11T06:54:00;98350;;;-5.4;83.2
23253;BME280;11795;47.054;15.408;2024-01-11T06:55:59;98340;;;-5.3;83.1
23253;BME280;11795;47.054;15.408;2024-01-11T06:57:59;98340;;;-5.3;83.2
23253;BME280;11795;47.054;15.408;2024-01-11T06:59:59;98340;;;-5.1;82.9
23253;BME280;11795;47.054;15.408;2024-01-11T07:01:59;98340;;;-5.0;82.1
23253;BME280;11795;47.054;15.408;2024-01-11T07:03:59;98340;;;-5.0;81.7
23253;BME280;11795;47.054;15.408;2024-01-11T07:05:59;98340;;;-5.1;81.6
23253;BME280;11795;47.054;15.408;2024-01-11T07:07:59;98340;;;-5.2;81.8
23253;BME280;11795;47.054;15.408;2024-01-11T07:09:59;98340;;;-5.2;82.0
23253;BME280;11795;47.054;15.408;2024-01-11T07:11:59;98340;;;-5.1;81.9
23253;BME280;11795;47.054;15.408;2024-01-11T07:13:59;98340;;;-5.1;82.0
23253;BME280;11795;47.054;15.408;2024-01-11T07:15:59;98330;;;-5.0;81.6
23253;BME280;11795;47.054;15.408;2024-01-11T07:17:59;98330;;;-5.0;81.6
23253;BME280;11795;47.054;15.408;2024-01-11T07:19:59;98320;;;-5.0;81.2
23253;BME280;11795;47.054;15.408;2024-01-11T07:21:59;98320;;;-4.8;80.5
23253;BME280;11795;47.054;15.408;2024-01-11T07:23:59;98320;;;-4.8;80.3
23253;BME280;11795;47.054;15.408;2024-01-11T07:25:59;98320;;;-4.8;80.4
23253;BME280;11795;47.054;15.408;2024-01-11T07:27:59;98320;;;-4.9;80.8
23253;BME280;11795;47.054;15.408;2024-01-11T07:29:59;98320;;;-4.9;81.0
23253;BME280;11795;47.054;15.408;2024-01-11T07:31:59;98320;;;-4.8;81.1
23253;BME280;11795;47.054;15.408;2024-01-11T07:33:59;98310;;;-4.8;81.1
23253;BME280;11795;47.054;15.408;2024-01-11T07:35:59;98310;;;-4.6;81.0
23253;BME280;11795;47.054;15.408;2024-01-11T07:37:59;98320;;;-4.6;81.0
23253;BME280;11795;47.054;15.408;2024-01-11T07:39:59;98320;;;-4.7;81.4
23253;BME280;11795;47.054;15.408;2024-01-11T07:41:59;98330;;;-4.6;81.4
23253;BME280;11795;47.054;15.408;2024-01-11T07:44:00;98330;;;-4.6;81.8
23253;BME280;11795;47.054;15.408;2024-01-11T07:45:59;98330;;;-4.5;81.8
23253;BME280;11795;47.054;15.408;2024-01-11T07:47:59;98330;;;-4.5;82.0
23253;BME280;11795;47.054;15.408;2024-01-11T07:49:59;98330;;;-4.4;82.3
23253;BME280;11795;47.054;15.408;2024-01-11T07:51:59;98320;;;-4.4;82.2
23253;BME280;11795;47.054;15.408;2024-01-11T07:53:59;98320;;;-4.3;82.3
23253;BME280;11795;47.054;15.408;2024-01-11T07:55:59;98330;;;-4.2;82.0
23253;BME280;11795;47.054;15.408;2024-01-11T07:57:59;98320;;;-4.1;82.0
23253;BME280;11795;47.054;15.408;2024-01-11T07:59:59;98320;;;-4.0;81.5
23253;BME280;11795;47.054;15.408;2024-01-11T08:02:00;98320;;;-4.0;81.3
23253;BME280;11795;47.054;15.408;2024-01-11T08:04:01;98320;;;-4.0;82.0
23253;BME280;11795;47.054;15.408;2024-01-11T08:06:00;98320;;;-4.0;82.0
23253;BME280;11795;47.054;15.408;2024-01-11T08:08:02;98320;;;-4.1;82.4
23253;BME280;11795;47.054;15.408;2024-01-11T08:09:59;98320;;;-4.0;82.7
23253;BME280;11795;47.054;15.408;2024-01-11T08:11:59;98320;;;-3.9;82.0
23253;BME280;11795;47.054;15.408;2024-01-11T08:13:59;98320;;;-4.0;82.2
23253;BME280;11795;47.054;15.408;2024-01-11T08:16:00;98320;;;-3.8;82.2
23253;BME280;11795;47.054;15.408;2024-01-11T08:18:00;98320;;;-3.9;82.4
23253;BME280;11795;47.054;15.408;2024-01-11T08:19:59;98320;;;-3.8;82.7
23253;BME280;11795;47.054;15.408;2024-01-11T08:21:59;98320;;;-3.7;82.6
23253;BME280;11795;47.054;15.408;2024-01-11T08:23:59;98320;;;-3.7;82.7
23253;BME280;11795;47.054;15.408;2024-01-11T08:25:59;98310;;;-3.5;82.4
23253;BME280;11795;47.054;15.408;2024-01-11T08:27:59;98310;;;-3.5;82.3
23253;BME280;11795;47.054;15.408;2024-01-11T08:30:00;98310;;;-3.5;82.4
23253;BME280;11795;47.054;15.408;2024-01-11T08:31:59;98320;;;-3.5;82.2
23253;BME280;11795;47.054;15.408;2024-01-11T08:33:59;98310;;;-3.5;82.4
23253;BME280;11795;47.054;15.408;2024-01-11T08:35:59;98310;;;-3.2;82.0
23253;BME280;11795;47.054;15.408;2024-01-11T08:37:59;98300;;;-3.2;81.5
23253;BME280;11795;47.054;15.408;2024-01-11T08:39:59;98300;;;-3.2;81.5
23253;BME280;11795;47.054;15.408;2024-01-11T08:41:59;98300;;;-3.1;81.1
23253;BME280;11795;47.054;15.408;2024-01-11T08:43:59;98300;;;-3.2;81.2
23253;BME280;11795;47.054;15.408;2024-01-11T08:45:59;98300;;;-3.1;81.3
23253;BME280;11795;47.054;15.408;2024-01-11T08:47:59;98300;;;-3.2;81.4
23253;BME280;11795;47.054;15.408;2024-01-11T08:49:59;98300;;;-3.1;81.8
23253;BME280;11795;47.054;15.408;2024-01-11T08:51:59;98310;;;-3.0;81.9
23253;BME280;11795;47.054;15.408;2024-01-11T08:54:00;98310;;;-2.9;81.9
23253;BME280;11795;47.054;15.408;2024-01-11T08:55:59;98310;;;-2.6;81.4
23253;BME280;11795;47.054;15.408;2024-01-11T08:57:59;98300;;;-2.3;79.6
23253;BME280;11795;47.054;15.408;2024-01-11T08:59:59;98300;;;-2.3;78.0
23253;BME280;11795;47.054;15.408;2024-01-11T09:01:59;98310;;;-2.3;78.5
23253;BME280;11795;47.054;15.408;2024-01-11T09:03:59;98310;;;-2.1;79.0
23253;BME280;11795;47.054;15.408;2024-01-11T09:05:59;98310;;;-1.7;78.6
23253;BME280;11795;47.054;15.408;2024-01-11T09:07:59;98310;;;-1.4;76.8
23253;BME280;11795;47.054;15.408;2024-01-11T09:09:59;98300;;;-1.1;75.9
23253;BME280;11795;47.054;15.408;2024-01-11T09:11:59;98300;;;-0.9;73.6
23253;BME280;11795;47.054;15.408;2024-01-11T09:13:59;98290;;;-0.9;73.4
23253;BME280;11795;47.054;15.408;2024-01-11T09:15:59;98290;;;-0.8;73.2
23253;BME280;11795;47.054;15.408;2024-01-11T09:18:00;98290;;;-0.7;72.8
23253;BME280;11795;47.054;15.408;2024-01-11T09:19:59;98280;;;-0.6;73.0
23253;BME280;11795;47.054;15.408;2024-01-11T09:21:59;98280;;;-0.4;70.8
23253;BME280;11795;47.054;15.408;2024-01-11T09:23:59;98280;;;-0.3;69.6
23253;BME280;11795;47.054;15.408;2024-01-11T09:25:59;98270;;;-0.0;69.7
23253;BME280;11795;47.054;15.408;2024-01-11T09:27:59;98270;;;0.1;67.8
23253;BME280;11795;47.054;15.408;2024-01-11T09:29:59;98280;;;0.2;69.3
23253;BME280;11795;47.054;15.408;2024-01-11T09:31:59;98270;;;0.5;69.5
23253;BME280;11795;47.054;15.408;2024-01-11T09:33:59;98280;;;0.6;68.6
23253;BME280;11795;47.054;15.408;2024-01-11T09:35:59;98290;;;0.9;67.8
23253;BME280;11795;47.054;15.408;2024-01-11T09:37:59;98290;;;0.9;67.1
23253;BME280;11795;47.054;15.408;2024-01-11T09:40:01;98280;;;1.0;67.2
23253;BME280;11795;47.054;15.408;2024-01-11T09:42:05;98280;;;1.2;65.8
23253;BME280;11795;47.054;15.408;2024-01-11T09:44:00;98270;;;1.3;64.9
23253;BME280;11795;47.054;15.408;2024-01-11T09:46:00;98270;;;1.5;64.6
23253;BME280;11795;47.054;15.408;2024-01-11T09:47:59;98280;;;1.5;63.7
23253;BME280;11795;47.054;15.408;2024-01-11T09:50:00;98270;;;1.6;62.8
23253;BME280;11795;47.054;15.408;2024-01-11T09:51:59;98260;;;1.7;63.5
23253;BME280;11795;47.054;15.408;2024-01-11T09:54:00;98260;;;1.6;63.7
23253;BME280;11795;47.054;15.408;2024-01-11T09:55:59;98250;;;1.9;61.0
23253;BME280;11795;47.054;15.408;2024-01-11T09:58:00;98250;;;1.9;61.7
23253;BME280;11795;47.054;15.408;2024-01-11T10:00:00;98240;;;2.1;61.7
23253;BME280;11795;47.054;15.408;2024-01-11T10:02:00;98230;;;2.3;60.5
23253;BME280;11795;47.054;15.408;2024-01-11T10:04:00;98230;;;2.5;60.2
23253;BME280;11795;47.054;15.408;2024-01-11T10:06:00;98230;;;2.7;58.6
23253;BME280;11795;47.054;15.408;2024-01-11T10:07:59;98240;;;2.9;59.5
23253;BME280;11795;47.054;15.408;2024-01-11T10:10:00;98240;;;3.0;59.4
23253;BME280;11795;47.054;15.408;2024-01-11T10:11:59;98240;;;3.4;58.3
23253;BME280;11795;47.054;15.408;2024-01-11T10:14:01;98230;;;3.6;56.6
23253;BME280;11795;47.054;15.408;2024-01-11T10:16:05;98230;;;3.6;56.3
23253;BME280;11795;47.054;15.408;2024-01-11T10:17:59;98230;;;3.4;55.6
23253;BME280;11795;47.054;15.408;2024-01-11T10:20:00;98230;;;3.5;56.8
23253;BME280;11795;47.054;15.408;2024-01-11T10:21:59;98230;;;3.6;55.9
23253;BME280;11795;47.054;15.408;2024-01-11T10:23:59;98230;;;4.0;57.0
23253;BME280;11795;47.054;15.408;2024-01-11T10:25:59;98230;;;4.6;56.3
23253;BME280;11795;47.054;15.408;2024-01-11T10:27:59;98220;;;4.7;54.2
23253;BME280;11795;47.054;15.408;2024-01-11T10:29:59;98210;;;4.9;54.6
23253;BME280;11795;47.054;15.408;2024-01-11T10:31:59;98190;;;5.1;53.7
23253;BME280;11795;47.054;15.408;2024-01-11T10:33:59;98190;;;5.3;53.6
23253;BME280;11795;47.054;15.408;2024-01-11T10:35:59;98190;;;5.5;52.6
23253;BME280;11795;47.054;15.408;2024-01-11T10:38:01;98180;;;5.6;51.3
23253;BME280;11795;47.054;15.408;2024-01-11T10:40:03;98180;;;5.5;50.9
23253;BME280;11795;47.054;15.408;2024-01-11T10:42:04;98180;;;4.9;51.3
23253;BME280;11795;47.054;15.408;2024-01-11T10:43:59;98180;;;5.0;51.8
23253;BME280;11795;47.054;15.408;2024-01-11T10:45:59;98170;;;5.3;51.5
23253;BME280;11795;47.054;15.408;2024-01-11T10:48:01;98160;;;5.5;52.0
23253;BME280;11795;47.054;15.408;2024-01-11T10:50:01;98160;;;5.5;49.7
23253;BME280;11795;47.054;15.408;2024-01-11T10:52:00;98160;;;5.2;51.2
23253;BME280;11795;47.054;15.408;2024-01-11T10:54:00;98160;;;4.8;52.7
23253;BME280;11795;47.054;15.408;2024-01-11T10:55:59;98150;;;5.3;51.7
23253;BME280;11795;47.054;15.408;2024-01-11T10:57:59;98150;;;5.5;51.7
23253;BME280;11795;47.054;15.408;2024-01-11T11:00:00;98140;;;5.6;50.8
23253;BME280;11795;47.054;15.408;2024-01-11T11:02:03;98130;;;5.8;50.0
23253;BME280;11795;47.054;15.408;2024-01-11T11:04:00;98130;;;5.5;49.9
23253;BME280;11795;47.054;15.408;2024-01-11T11:06:00;98130;;;5.8;50.8
23253;BME280;11795;47.054;15.408;2024-01-11T11:08:01;98120;;;6.1;50.1
23253;BME280;11795;47.054;15.408;2024-01-11T11:09:59;98120;;;6.2;49.3
23253;BME280;11795;47.054;15.408;2024-01-11T11:11:59;98120;;;6.2;48.6
23253;BME280;11795;47.054;15.408;2024-01-11T11:14:00;98120;;;5.8;49.4